createdAt,value
2022-08-14T00:02:16.029Z,11.77
2022-08-14T00:04:44.976Z,10.93
2022-08-14T00:07:13.794Z,10.82
2022-08-14T00:10:01.172Z,11.00
2022-08-14T00:12:53.230Z,10.30
2022-08-14T00:15:37.325Z,11.90
2022-08-14T00:18:14.538Z,11.33
2022-08-14T00:20:43.544Z,10.57
2022-08-14T00:23:16.492Z,11.05
2022-08-14T00:25:58.622Z,10.90
2022-08-14T00:28:35.442Z,10.40
2022-08-14T00:31:08.013Z,11.33
2022-08-14T00:33:51.613Z,13.10
2022-08-14T00:36:36.865Z,11.77
2022-08-14T00:39:14.567Z,9.85
2022-08-14T00:41:43.203Z,11.70
2022-08-14T00:44:11.218Z,9.97
2022-08-14T00:46:39.521Z,10.40
2022-08-14T00:49:11.628Z,13.77
2022-08-14T00:51:44.499Z,14.20
2022-08-14T00:54:20.995Z,13.82
2022-08-14T00:56:55.489Z,10.97
2022-08-14T00:59:28.894Z,11.73
2022-08-14T01:02:02.004Z,12.88
2022-08-14T01:04:52.157Z,12.43
2022-08-14T01:07:25.101Z,11.65
2022-08-14T01:10:01.913Z,14.30
2022-08-14T01:12:30.496Z,12.80
2022-08-14T01:14:59.888Z,13.68
2022-08-14T01:17:52.231Z,13.95
2022-08-14T01:20:40.483Z,11.75
2022-08-14T01:23:16.758Z,12.53
2022-08-14T01:25:48.910Z,12.25
2022-08-14T01:28:46.627Z,11.68
2022-08-14T01:31:15.984Z,13.43
2022-08-14T01:35:15.804Z,10.15
2022-08-14T01:36:39.831Z,12.83
2022-08-14T01:39:13.215Z,10.48
2022-08-14T01:41:43.422Z,10.60
2022-08-14T01:44:33.260Z,9.63
2022-08-14T01:47:11.812Z,11.15
2022-08-14T01:49:45.783Z,11.00
2022-08-14T01:52:34.308Z,11.45
2022-08-14T01:55:01.823Z,10.52
2022-08-14T01:57:49.534Z,11.55
2022-08-14T02:00:19.448Z,12.48
2022-08-14T02:02:52.594Z,12.00
2022-08-14T02:05:20.664Z,11.63
2022-08-14T02:07:55.813Z,10.80
2022-08-14T02:10:46.259Z,12.57
2022-08-14T02:13:17.439Z,13.65
2022-08-14T02:15:48.339Z,11.60
2022-08-14T02:18:18.351Z,12.80
2022-08-14T02:20:47.729Z,12.85
2022-08-14T02:23:16.180Z,11.93
2022-08-14T02:25:54.572Z,14.68
2022-08-14T02:28:57.282Z,15.77
2022-08-14T02:31:14.856Z,13.95
2022-08-14T02:33:43.107Z,12.88
2022-08-14T02:37:04.521Z,11.48
2022-08-14T02:39:00.011Z,12.45
2022-08-14T02:41:31.850Z,13.27
2022-08-14T02:44:07.008Z,12.05
2022-08-14T02:46:35.862Z,12.43
2022-08-14T02:49:09.042Z,12.38
2022-08-14T02:51:38.433Z,14.20
2022-08-14T02:54:08.656Z,12.70
2022-08-14T02:57:15.478Z,12.85
2022-08-14T02:59:33.629Z,11.82
2022-08-14T03:02:03.336Z,12.43
2022-08-14T03:04:32.885Z,12.60
2022-08-14T03:07:07.225Z,15.07
2022-08-14T03:10:25.348Z,13.65
2022-08-14T03:12:32.134Z,12.50
2022-08-14T03:15:06.518Z,13.27
2022-08-14T03:17:40.924Z,12.38
2022-08-14T03:20:22.945Z,12.10
2022-08-14T03:22:51.688Z,12.50
2022-08-14T03:25:19.906Z,11.50
2022-08-14T03:27:48.596Z,11.00
2022-08-14T03:30:38.970Z,11.50
2022-08-14T03:33:12.863Z,11.67
2022-08-14T03:36:05.501Z,11.73
2022-08-14T03:39:11.772Z,12.02
2022-08-14T03:41:24.325Z,12.02
2022-08-14T03:43:57.794Z,11.98
2022-08-14T03:46:53.060Z,10.20
2022-08-14T03:49:28.480Z,12.57
2022-08-14T03:52:00.661Z,10.85
2022-08-14T03:54:29.855Z,11.05
2022-08-14T03:57:02.890Z,10.13
2022-08-14T03:59:32.892Z,11.00
2022-08-14T04:02:04.503Z,12.90
2022-08-14T04:04:38.358Z,10.65
2022-08-14T04:07:06.897Z,12.02
2022-08-14T04:09:36.849Z,9.60
2022-08-14T04:12:07.626Z,10.00
2022-08-14T04:14:42.098Z,10.20
2022-08-14T04:17:10.219Z,11.48
2022-08-14T04:19:39.376Z,10.88
2022-08-14T04:22:08.913Z,9.98
2022-08-14T04:24:39.460Z,11.00
2022-08-14T04:27:12.028Z,10.18
2022-08-14T04:29:42.736Z,9.40
2022-08-14T04:32:59.927Z,9.60
2022-08-14T04:35:01.422Z,10.38
2022-08-14T04:37:53.971Z,9.60
2022-08-14T04:40:42.089Z,10.23
2022-08-14T04:43:38.671Z,11.82
2022-08-14T04:46:07.551Z,9.00
2022-08-14T04:48:43.264Z,9.80
2022-08-14T04:51:20.855Z,13.03
2022-08-14T04:53:49.814Z,10.95
2022-08-14T04:56:30.578Z,10.35
2022-08-14T04:59:10.339Z,9.93
2022-08-14T05:01:47.838Z,9.32
2022-08-14T05:04:22.986Z,10.93
2022-08-14T05:06:54.373Z,9.75
2022-08-14T05:09:28.926Z,10.10
2022-08-14T05:13:10.481Z,10.73
2022-08-14T05:14:54.968Z,11.80
2022-08-14T05:17:28.682Z,16.33
2022-08-14T05:21:54.740Z,15.20
2022-08-14T05:23:00.073Z,14.05
2022-08-14T05:25:31.011Z,16.30
2022-08-14T05:28:16.216Z,15.25
2022-08-14T05:30:43.987Z,13.70
2022-08-14T05:33:13.102Z,15.02
2022-08-14T05:35:42.435Z,12.63
2022-08-14T05:38:22.241Z,13.45
2022-08-14T05:41:00.046Z,13.05
2022-08-14T05:43:40.790Z,13.87
2022-08-14T05:46:15.293Z,15.15
2022-08-14T05:48:43.600Z,13.43
2022-08-14T05:51:11.229Z,13.13
2022-08-14T05:53:42.451Z,13.88
2022-08-14T05:56:10.131Z,11.47
2022-08-14T05:58:40.900Z,15.02
2022-08-14T06:01:10.366Z,13.10
2022-08-14T06:03:40.198Z,12.38
2022-08-14T06:06:08.265Z,12.55
2022-08-14T06:08:41.311Z,13.47
2022-08-14T06:11:14.856Z,11.35
2022-08-14T06:13:48.342Z,12.05
2022-08-14T06:16:18.362Z,12.82
2022-08-14T06:18:48.379Z,11.68
2022-08-14T06:21:16.159Z,12.43
2022-08-14T06:23:44.896Z,13.25
2022-08-14T06:26:20.507Z,11.98
2022-08-14T06:28:52.510Z,12.27
2022-08-14T06:31:21.624Z,12.38
2022-08-14T06:35:04.565Z,13.40
2022-08-14T06:36:39.318Z,11.18
2022-08-14T06:39:10.373Z,10.82
2022-08-14T06:41:59.517Z,13.50
2022-08-14T06:44:30.708Z,13.00
2022-08-14T06:47:04.599Z,12.73
2022-08-14T06:49:40.128Z,12.38
2022-08-14T06:52:15.132Z,12.73
2022-08-14T06:54:43.697Z,11.70
2022-08-14T06:57:12.410Z,12.52
2022-08-14T06:59:41.592Z,12.40
2022-08-14T07:02:28.817Z,12.95
2022-08-14T07:05:20.873Z,12.05
2022-08-14T07:07:51.274Z,12.75
2022-08-14T07:10:18.617Z,11.55
2022-08-14T07:13:01.814Z,11.20
2022-08-14T07:15:34.108Z,14.00
2022-08-14T07:18:08.807Z,12.10
2022-08-14T07:20:37.159Z,14.38
2022-08-14T07:23:09.463Z,13.93
2022-08-14T07:25:51.502Z,14.27
2022-08-14T07:28:21.580Z,12.75
2022-08-14T07:30:50.796Z,12.15
2022-08-14T07:33:20.870Z,11.27
2022-08-14T07:35:59.415Z,10.80
2022-08-14T07:38:36.320Z,9.90
2022-08-14T07:41:12.093Z,9.48
2022-08-14T07:43:43.247Z,10.07
2022-08-14T07:46:12.256Z,10.82
2022-08-14T07:48:41.565Z,9.55
2022-08-14T07:51:11.054Z,12.00
2022-08-14T07:53:41.070Z,12.73
2022-08-14T07:56:22.134Z,13.20
2022-08-14T07:58:59.958Z,15.85
2022-08-14T08:01:30.688Z,15.40
2022-08-14T08:04:00.354Z,13.70
2022-08-14T08:06:28.892Z,13.85
2022-08-14T08:09:02.991Z,12.52
2022-08-14T08:11:37.678Z,12.55
2022-08-14T08:14:10.837Z,15.13
2022-08-14T08:16:51.130Z,12.93
2022-08-14T08:19:19.587Z,16.25
2022-08-14T08:21:47.771Z,11.90
2022-08-14T08:24:19.714Z,11.63
2022-08-14T08:26:50.585Z,13.80
2022-08-14T08:29:29.028Z,10.13
2022-08-14T08:32:01.787Z,10.98
2022-08-14T08:34:42.351Z,10.93
2022-08-14T08:37:09.920Z,10.55
2022-08-14T08:40:03.404Z,9.80
2022-08-14T08:42:38.303Z,9.33
2022-08-14T08:45:11.998Z,8.98
2022-08-14T08:47:41.364Z,9.75
2022-08-14T08:53:10.631Z,11.18
2022-08-14T08:55:45.269Z,8.20
2022-08-14T08:58:20.091Z,7.65
2022-08-14T09:00:55.360Z,8.07
2022-08-14T09:03:27.594Z,7.20
2022-08-14T09:06:04.124Z,8.30
2022-08-14T09:08:51.511Z,8.40
2022-08-14T09:11:21.272Z,9.10
2022-08-14T09:13:53.974Z,9.73
2022-08-14T09:16:26.428Z,10.18
2022-08-14T09:18:55.076Z,10.20
2022-08-14T09:21:24.041Z,8.77
2022-08-14T09:24:28.974Z,9.98
2022-08-14T09:26:48.893Z,10.07
2022-08-14T09:29:19.985Z,8.82
2022-08-14T09:31:57.340Z,9.13
2022-08-14T09:35:04.084Z,8.97
2022-08-14T09:38:25.668Z,10.35
2022-08-14T09:42:17.306Z,9.02
2022-08-14T09:44:49.715Z,8.32
2022-08-14T09:47:17.863Z,9.50
2022-08-14T09:49:53.049Z,9.33
2022-08-14T09:52:32.930Z,11.73
2022-08-14T09:55:02.617Z,11.73
2022-08-14T09:57:39.940Z,9.85
2022-08-14T10:00:28.844Z,8.30
2022-08-14T10:03:05.084Z,9.07
2022-08-14T10:05:37.858Z,8.75
2022-08-14T10:08:26.239Z,9.32
2022-08-14T10:11:02.944Z,8.00
2022-08-14T10:13:42.887Z,8.77
2022-08-14T10:16:25.616Z,7.80
2022-08-14T10:19:10.155Z,8.70
2022-08-14T10:21:58.173Z,8.15
2022-08-14T10:24:36.670Z,9.43
2022-08-14T10:27:05.913Z,8.95
2022-08-14T10:29:38.737Z,10.87
2022-08-14T10:32:17.788Z,12.18
2022-08-14T10:35:14.077Z,9.05
2022-08-14T10:37:53.181Z,8.00
2022-08-14T10:40:37.934Z,9.18
2022-08-14T10:43:23.868Z,8.57
2022-08-14T10:46:03.767Z,8.13
2022-08-14T10:48:57.419Z,9.68
2022-08-14T10:51:30.304Z,7.97
2022-08-14T10:54:25.922Z,8.15
2022-08-14T10:57:19.003Z,8.20
2022-08-14T10:59:54.243Z,8.13
2022-08-14T11:02:44.789Z,8.75
2022-08-14T11:05:19.114Z,7.57
2022-08-14T11:07:56.405Z,9.13
2022-08-14T11:10:28.031Z,8.53
2022-08-14T11:12:58.724Z,7.93
2022-08-14T11:15:28.672Z,7.95
2022-08-14T11:18:01.248Z,8.05
2022-08-14T11:20:30.834Z,8.32
2022-08-14T11:23:01.328Z,9.83
2022-08-14T11:25:43.911Z,8.70
2022-08-14T11:28:46.821Z,7.72
2022-08-14T11:31:15.865Z,8.13
2022-08-14T11:33:43.322Z,8.00
2022-08-14T11:36:18.202Z,7.73
2022-08-14T11:38:47.435Z,7.70
2022-08-14T11:41:17.072Z,8.20
2022-08-14T11:43:57.689Z,8.75
2022-08-14T11:46:30.563Z,9.23
2022-08-14T11:49:06.355Z,7.73
2022-08-14T11:51:35.935Z,8.57
2022-08-14T11:54:08.172Z,8.73
2022-08-14T11:56:37.566Z,8.18
2022-08-14T11:59:10.300Z,7.07
2022-08-14T12:01:41.158Z,7.30
2022-08-14T12:04:31.916Z,6.78
2022-08-14T12:07:01.592Z,7.50
2022-08-14T12:09:31.567Z,6.78
2022-08-14T12:11:59.896Z,8.43
2022-08-14T12:14:30.479Z,7.67
2022-08-14T12:17:11.767Z,7.57
2022-08-14T12:19:58.781Z,7.35
2022-08-14T12:22:39.977Z,8.98
2022-08-14T12:25:11.286Z,7.90
2022-08-14T12:27:52.517Z,7.60
2022-08-14T12:30:42.960Z,7.57
2022-08-14T12:33:33.640Z,7.70
2022-08-14T12:36:10.564Z,8.25
2022-08-14T12:38:43.633Z,7.88
2022-08-14T12:41:16.474Z,7.50
2022-08-14T12:43:56.957Z,9.80
2022-08-14T12:46:35.069Z,7.85
2022-08-14T12:49:10.039Z,7.88
2022-08-14T12:51:38.535Z,8.15
2022-08-14T12:54:27.660Z,7.97
2022-08-14T12:57:05.741Z,8.70
2022-08-14T12:59:37.349Z,9.15
2022-08-14T13:02:26.303Z,9.40
2022-08-14T13:04:58.290Z,7.38
2022-08-14T13:07:32.441Z,8.53
2022-08-14T13:10:47.724Z,8.20
2022-08-14T13:13:12.992Z,7.47
2022-08-14T13:15:40.672Z,7.50
2022-08-14T13:18:11.598Z,7.70
2022-08-14T13:20:49.422Z,7.60
2022-08-14T13:23:31.727Z,7.38
2022-08-14T13:26:01.025Z,7.60
2022-08-14T13:28:33.568Z,7.30
2022-08-14T13:31:11.293Z,7.40
2022-08-14T13:33:40.748Z,7.37
2022-08-14T13:36:09.827Z,7.55
2022-08-14T13:38:39.134Z,8.13
2022-08-14T13:41:07.024Z,7.15
2022-08-14T13:43:49.336Z,9.25
2022-08-14T13:46:26.326Z,7.37
2022-08-14T13:48:56.168Z,8.15
2022-08-14T13:51:30.145Z,8.85
2022-08-14T13:54:09.981Z,8.45
2022-08-14T13:56:40.976Z,7.50
2022-08-14T13:59:10.539Z,8.07
2022-08-14T14:01:43.269Z,7.90
2022-08-14T14:04:20.155Z,7.88
2022-08-14T14:06:49.825Z,7.75
2022-08-14T14:09:32.673Z,8.85
2022-08-14T14:12:49.021Z,6.97
2022-08-14T14:14:57.843Z,6.60
2022-08-14T14:17:32.622Z,8.95
2022-08-14T14:20:00.144Z,6.53
2022-08-14T14:23:00.740Z,6.45
2022-08-14T14:25:19.221Z,6.60
2022-08-14T14:27:53.542Z,6.32
2022-08-14T14:30:46.482Z,7.40
2022-08-14T14:33:42.307Z,6.53
2022-08-14T14:36:01.936Z,6.93
2022-08-14T14:38:33.962Z,8.33
2022-08-14T14:41:02.565Z,7.25
2022-08-14T14:43:36.524Z,7.07
2022-08-14T14:46:09.661Z,7.97
2022-08-14T14:48:46.671Z,11.07
2022-08-14T14:51:22.293Z,7.23
2022-08-14T14:53:49.934Z,6.85
2022-08-14T14:56:49.750Z,6.72
2022-08-14T14:59:06.457Z,6.00
2022-08-14T15:01:38.190Z,6.97
2022-08-14T15:04:20.209Z,6.50
2022-08-14T15:06:50.206Z,6.40
2022-08-14T15:09:20.988Z,5.75
2022-08-14T15:11:51.199Z,5.95
2022-08-14T15:14:55.588Z,9.45
2022-08-14T15:17:08.739Z,5.53
2022-08-14T15:19:38.203Z,6.45
2022-08-14T15:22:08.324Z,5.32
2022-08-14T15:24:38.727Z,4.22
2022-08-14T15:27:08.532Z,5.30
2022-08-14T15:29:43.173Z,4.63
2022-08-14T15:32:10.915Z,4.50
2022-08-14T15:34:51.229Z,4.78
2022-08-14T15:37:22.981Z,5.40
2022-08-14T15:39:52.796Z,4.47
2022-08-14T15:42:23.260Z,4.43
2022-08-14T15:44:57.464Z,4.68
2022-08-14T15:47:29.589Z,4.47
2022-08-14T15:50:00.823Z,4.80
2022-08-14T15:52:35.070Z,5.85
2022-08-14T15:55:12.999Z,5.07
2022-08-14T15:58:02.255Z,3.83
2022-08-14T16:00:51.725Z,3.53
2022-08-14T16:03:27.346Z,5.22
2022-08-14T16:06:10.786Z,6.00
2022-08-14T16:08:44.881Z,4.97
2022-08-14T16:11:13.295Z,5.65
2022-08-14T16:13:47.785Z,6.00
2022-08-14T16:16:49.053Z,7.55
2022-08-14T16:19:20.226Z,8.35
2022-08-14T16:22:01.769Z,7.10
2022-08-14T16:25:00.074Z,8.88
2022-08-14T16:27:39.136Z,5.85
2022-08-14T16:33:07.578Z,6.28
2022-08-14T16:35:42.984Z,7.40
2022-08-14T16:38:46.009Z,5.72
2022-08-14T16:41:27.442Z,6.53
2022-08-14T16:44:13.618Z,7.97
2022-08-14T16:46:51.108Z,7.93
2022-08-14T16:49:22.692Z,6.00
2022-08-14T16:51:51.311Z,5.90
2022-08-14T16:54:34.429Z,8.50
2022-08-14T16:57:26.106Z,6.43
2022-08-14T16:59:59.861Z,6.57
2022-08-14T17:02:43.102Z,7.30
2022-08-14T17:05:19.715Z,6.25
2022-08-14T17:08:30.896Z,6.05
2022-08-14T17:10:56.368Z,6.50
2022-08-14T17:13:59.020Z,7.60
2022-08-14T17:16:25.064Z,6.77
2022-08-14T17:19:00.751Z,7.65
2022-08-14T17:21:37.568Z,7.93
2022-08-14T17:24:57.896Z,7.78
2022-08-14T17:26:59.890Z,8.20
2022-08-14T17:29:33.785Z,7.17
2022-08-14T17:32:28.159Z,12.45
2022-08-14T17:34:57.771Z,7.05
2022-08-14T17:40:25.864Z,7.45
2022-08-14T17:42:58.871Z,7.33
2022-08-14T17:45:41.007Z,8.38
2022-08-14T17:49:10.792Z,7.53
2022-08-14T17:51:14.478Z,6.88
2022-08-14T17:53:52.628Z,7.55
2022-08-14T17:56:21.557Z,6.97
2022-08-14T17:58:50.127Z,7.45
2022-08-14T18:01:23.646Z,10.07
2022-08-14T18:03:53.980Z,7.60
2022-08-14T18:06:39.791Z,6.55
2022-08-14T18:09:25.262Z,7.13
2022-08-14T18:12:00.269Z,7.85
2022-08-14T18:14:48.968Z,7.75
2022-08-14T18:17:23.979Z,6.70
2022-08-14T18:19:54.044Z,6.88
2022-08-14T18:22:32.099Z,7.40
2022-08-14T18:25:02.321Z,7.80
2022-08-14T18:27:46.079Z,7.68
2022-08-14T18:30:33.137Z,7.07
2022-08-14T18:33:22.664Z,7.85
2022-08-14T18:35:58.637Z,7.63
2022-08-14T18:38:43.076Z,6.60
2022-08-14T18:41:37.309Z,7.45
2022-08-14T18:44:10.634Z,7.97
2022-08-14T18:47:14.666Z,7.10
2022-08-14T18:50:04.044Z,7.60
2022-08-14T18:52:53.254Z,8.50
2022-08-14T18:55:21.246Z,7.18
2022-08-14T18:57:58.258Z,6.93
2022-08-14T19:00:33.868Z,8.48
2022-08-14T19:03:03.997Z,9.30
2022-08-14T19:05:47.075Z,6.88
2022-08-14T19:08:27.294Z,7.32
2022-08-14T19:11:03.978Z,8.55
2022-08-14T19:13:47.945Z,8.88
2022-08-14T19:16:26.416Z,8.00
2022-08-14T19:19:00.061Z,9.25
2022-08-14T19:21:41.077Z,8.07
2022-08-14T19:24:27.888Z,7.18
2022-08-14T19:27:22.918Z,7.25
2022-08-14T19:29:51.796Z,7.83
2022-08-14T19:32:40.487Z,7.78
2022-08-14T19:35:18.602Z,6.95
2022-08-14T19:37:52.754Z,7.05
2022-08-14T19:40:42.894Z,7.00
2022-08-14T19:43:55.968Z,6.83
2022-08-14T19:46:39.301Z,7.40
2022-08-14T19:48:59.113Z,6.50
2022-08-14T19:51:32.768Z,6.40
2022-08-14T19:54:13.363Z,6.72
2022-08-14T19:56:45.772Z,6.10
2022-08-14T19:59:19.412Z,6.32
2022-08-14T20:01:52.433Z,6.05
2022-08-14T20:04:47.268Z,6.65
2022-08-14T20:07:59.693Z,5.55
2022-08-14T20:11:03.833Z,4.87
2022-08-14T20:13:15.605Z,6.32
2022-08-14T20:15:53.313Z,6.30
2022-08-14T20:18:49.119Z,6.32
2022-08-14T20:21:15.308Z,7.00
2022-08-14T20:23:42.679Z,6.53
2022-08-14T20:26:30.863Z,6.38
2022-08-14T20:29:05.015Z,5.57
2022-08-14T20:31:37.278Z,6.00
2022-08-14T20:34:24.989Z,6.00
2022-08-14T20:37:10.464Z,6.10
2022-08-14T20:39:54.250Z,6.03
2022-08-14T20:42:43.726Z,7.60
2022-08-14T20:45:21.605Z,6.05
2022-08-14T20:47:58.643Z,6.18
2022-08-14T20:50:31.377Z,6.73
2022-08-14T20:53:05.652Z,6.50
2022-08-14T20:55:41.531Z,6.13
2022-08-14T20:58:38.244Z,7.40
2022-08-14T21:01:20.250Z,6.55
2022-08-14T21:03:56.716Z,5.87
2022-08-14T21:06:49.346Z,6.88
2022-08-14T21:10:05.248Z,6.00
2022-08-14T21:12:35.068Z,8.77
2022-08-14T21:15:11.156Z,6.45
2022-08-14T21:17:41.523Z,7.03
2022-08-14T21:20:25.644Z,6.40
2022-08-14T21:23:00.452Z,6.10
2022-08-14T21:25:31.484Z,6.95
2022-08-14T21:28:03.285Z,6.40
2022-08-14T21:30:51.334Z,7.60
2022-08-14T21:33:22.081Z,6.28
2022-08-14T21:35:55.033Z,6.25
2022-08-14T21:38:33.805Z,8.15
2022-08-14T21:41:43.381Z,6.20
2022-08-14T21:44:17.634Z,6.37
2022-08-14T21:46:54.372Z,6.15
2022-08-14T21:49:37.631Z,5.80
2022-08-14T21:52:52.257Z,7.30
2022-08-14T21:55:08.549Z,7.18
2022-08-14T21:57:56.200Z,6.00
2022-08-14T22:00:39.625Z,6.22
2022-08-14T22:03:17.546Z,6.70
2022-08-14T22:05:50.259Z,7.38
2022-08-14T22:08:21.794Z,6.97
2022-08-14T22:10:55.054Z,6.30
2022-08-14T22:13:27.489Z,6.85
2022-08-14T22:16:02.163Z,6.65
2022-08-14T22:18:31.061Z,6.68
2022-08-14T22:20:59.698Z,6.80
2022-08-14T22:23:27.328Z,7.77
2022-08-14T22:25:55.601Z,7.00
2022-08-14T22:28:32.712Z,7.60
2022-08-14T22:31:10.278Z,9.75
2022-08-14T22:33:39.955Z,7.60
2022-08-14T22:36:33.821Z,6.77
2022-08-14T22:39:10.983Z,7.50
2022-08-14T22:41:42.881Z,6.80
2022-08-14T22:44:18.385Z,7.05
2022-08-14T22:46:46.208Z,6.93
2022-08-14T22:50:29.488Z,7.50
2022-08-14T22:52:32.914Z,6.18
2022-08-14T22:54:54.976Z,6.70
2022-08-14T22:57:22.657Z,6.47
2022-08-14T22:59:50.599Z,6.75
2022-08-14T23:02:30.246Z,7.90
2022-08-14T23:04:59.406Z,6.63
2022-08-14T23:08:57.535Z,7.93
2022-08-14T23:10:32.426Z,6.88
2022-08-14T23:13:04.322Z,6.43
2022-08-14T23:15:34.976Z,6.63
2022-08-14T23:18:05.117Z,6.72
2022-08-14T23:20:36.314Z,7.78
2022-08-14T23:23:12.180Z,7.93
2022-08-14T23:25:57.239Z,8.90
2022-08-14T23:28:34.788Z,7.57
2022-08-14T23:31:34.842Z,7.32
2022-08-14T23:34:07.093Z,8.40
2022-08-14T23:36:53.573Z,7.20
2022-08-14T23:39:30.272Z,6.70
2022-08-14T23:42:04.745Z,7.90
2022-08-14T23:44:35.303Z,7.82
2022-08-14T23:47:11.823Z,6.45
2022-08-14T23:50:00.390Z,6.95
2022-08-14T23:52:50.480Z,8.60
2022-08-14T23:55:21.830Z,6.80
2022-08-14T23:57:58.035Z,6.88
